EYKA/KUN METAR and TAF weather

Enter ICAO airport designator
Station Type Date Time Source
EYKA METAR 2019/02/20 07:20 UTC NOAA

EYKA 200720Z 26014KT 9999 OVC012 04/02 Q1005 R08/29//95


Station Type Date Time Source
EYKA Decoded METAR 2019/02/20 07:20 UTC NOAA

Kaunas, Lithuania (EYKA) 54-54N 023-55-12E
Feb 20, 2019 - 02:20 AM EST / 2019.02.20 0720 UTC
Wind: from the W (260 degrees) at 16 MPH (14 KT):0
Visibility: greater than 7 mile(s):0
Sky conditions: overcast
Temperature: 39 F (4 C)
Dew Point: 35 F (2 C)
Relative Humidity: 86%
Pressure (altimeter): 29.68 in. Hg (1005 hPa)
ob: EYKA 200720Z 26014KT 9999 OVC012 04/02 Q1005 R08/29//95
cycle: 7

Station Type Date Time Source
EYKA TAF 2019/02/20 06:06 UTC NOAA

TAF TAF EYKA 200504Z 2006/2106 27010G20KT 8000 OVC015
TEMPO 2006/2015 27020G30KT 3000 SHRA SCT005 BKN012CB
BECMG 2015/2016 33010G20KT SCT025


Example: see airport list